sensor_id;sensor_type;location;lat;lon;timestamp;pressure;altitude;pressure_sealevel;temperature;humidity
84714;BME280;74938;42.658;23.248;2023-12-29T00:02:12;94665.72;;;3.75;72.12
84714;BME280;74938;42.658;23.248;2023-12-29T00:04:38;94654.97;;;3.44;71.74
84714;BME280;74938;42.658;23.248;2023-12-29T00:07:03;94659.06;;;3.27;72.80
84714;BME280;74938;42.658;23.248;2023-12-29T00:09:29;94652.28;;;3.73;71.72
84714;BME280;74938;42.658;23.248;2023-12-29T00:11:54;94660.41;;;3.59;71.69
84714;BME280;74938;42.658;23.248;2023-12-29T00:14:20;94645.34;;;3.28;74.08
84714;BME280;74938;42.658;23.248;2023-12-29T00:16:45;94648.09;;;3.44;74.16
84714;BME280;74938;42.658;23.248;2023-12-29T00:19:11;94644.81;;;3.25;73.47
84714;BME280;74938;42.658;23.248;2023-12-29T00:21:37;94653.53;;;3.12;74.45
84714;BME280;74938;42.658;23.248;2023-12-29T00:24:04;94651.66;;;3.24;74.20
84714;BME280;74938;42.658;23.248;2023-12-29T00:26:29;94660.03;;;3.07;73.88
84714;BME280;74938;42.658;23.248;2023-12-29T00:28:55;94659.13;;;2.89;74.50
84714;BME280;74938;42.658;23.248;2023-12-29T00:31:20;94652.50;;;3.05;74.48
84714;BME280;74938;42.658;23.248;2023-12-29T00:33:46;94645.88;;;3.22;74.18
84714;BME280;74938;42.658;23.248;2023-12-29T00:36:15;94648.38;;;3.41;73.60
84714;BME280;74938;42.658;23.248;2023-12-29T00:38:41;94642.88;;;3.36;73.19
84714;BME280;74938;42.658;23.248;2023-12-29T00:41:06;94637.75;;;3.46;74.30
84714;BME280;74938;42.658;23.248;2023-12-29T00:43:32;94628.34;;;3.64;74.31
84714;BME280;74938;42.658;23.248;2023-12-29T00:45:57;94625.91;;;3.72;72.45
84714;BME280;74938;42.658;23.248;2023-12-29T00:48:23;94619.44;;;3.78;72.76
84714;BME280;74938;42.658;23.248;2023-12-29T00:50:48;94626.66;;;3.82;73.24
84714;BME280;74938;42.658;23.248;2023-12-29T00:53:13;94630.31;;;3.53;72.68
84714;BME280;74938;42.658;23.248;2023-12-29T00:55:38;94627.47;;;3.28;74.78
84714;BME280;74938;42.658;23.248;2023-12-29T00:58:04;94639.34;;;3.10;74.54
84714;BME280;74938;42.658;23.248;2023-12-29T01:00:29;94643.09;;;3.06;75.40
84714;BME280;74938;42.658;23.248;2023-12-29T01:02:55;94644.94;;;3.23;73.78
84714;BME280;74938;42.658;23.248;2023-12-29T01:05:20;94642.03;;;3.08;73.65
84714;BME280;74938;42.658;23.248;2023-12-29T01:07:45;94635.84;;;3.11;74.66
84714;BME280;74938;42.658;23.248;2023-12-29T01:10:11;94628.53;;;3.26;73.72
84714;BME280;74938;42.658;23.248;2023-12-29T01:12:36;94625.13;;;3.35;74.04
84714;BME280;74938;42.658;23.248;2023-12-29T01:15:02;94628.53;;;3.16;73.41
84714;BME280;74938;42.658;23.248;2023-12-29T01:17:28;94635.34;;;2.88;75.03
84714;BME280;74938;42.658;23.248;2023-12-29T01:19:54;94639.38;;;2.71;74.80
84714;BME280;74938;42.658;23.248;2023-12-29T01:22:20;94642.75;;;2.62;76.60
84714;BME280;74938;42.658;23.248;2023-12-29T01:24:45;94645.28;;;2.62;75.82
84714;BME280;74938;42.658;23.248;2023-12-29T01:27:10;94641.13;;;2.52;75.93
84714;BME280;74938;42.658;23.248;2023-12-29T01:29:36;94638.19;;;2.75;75.57
84714;BME280;74938;42.658;23.248;2023-12-29T01:32:01;94634.56;;;2.49;76.04
84714;BME280;74938;42.658;23.248;2023-12-29T01:34:29;94648.53;;;2.35;77.72
84714;BME280;74938;42.658;23.248;2023-12-29T01:36:58;94642.34;;;2.38;77.53
84714;BME280;74938;42.658;23.248;2023-12-29T01:39:23;94660.59;;;2.33;76.95
84714;BME280;74938;42.658;23.248;2023-12-29T01:41:48;94652.16;;;2.23;78.21
84714;BME280;74938;42.658;23.248;2023-12-29T01:44:19;94649.06;;;2.49;76.96
84714;BME280;74938;42.658;23.248;2023-12-29T01:46:46;94649.34;;;2.36;76.68
84714;BME280;74938;42.658;23.248;2023-12-29T01:49:16;94639.53;;;2.41;76.80
84714;BME280;74938;42.658;23.248;2023-12-29T01:51:51;94636.72;;;2.54;76.11
84714;BME280;74938;42.658;23.248;2023-12-29T01:54:19;94635.09;;;2.53;76.68
84714;BME280;74938;42.658;23.248;2023-12-29T01:56:45;94631.59;;;2.34;77.83
84714;BME280;74938;42.658;23.248;2023-12-29T01:59:12;94629.44;;;2.30;78.47
84714;BME280;74938;42.658;23.248;2023-12-29T02:01:37;94636.16;;;2.21;78.46
84714;BME280;74938;42.658;23.248;2023-12-29T02:04:05;94619.66;;;2.44;77.90
84714;BME280;74938;42.658;23.248;2023-12-29T02:06:31;94616.56;;;2.51;77.16
84714;BME280;74938;42.658;23.248;2023-12-29T02:08:58;94611.72;;;2.28;77.75
84714;BME280;74938;42.658;23.248;2023-12-29T02:11:24;94615.22;;;2.18;78.35
84714;BME280;74938;42.658;23.248;2023-12-29T02:13:50;94607.16;;;2.13;79.17
84714;BME280;74938;42.658;23.248;2023-12-29T02:19:13;94595.06;;;2.72;77.87
84714;BME280;74938;42.658;23.248;2023-12-29T02:21:43;94583.28;;;2.52;77.53
84714;BME280;74938;42.658;23.248;2023-12-29T02:24:09;94589.72;;;2.37;78.07
84714;BME280;74938;42.658;23.248;2023-12-29T02:26:34;94585.28;;;2.29;79.31
84714;BME280;74938;42.658;23.248;2023-12-29T02:29:04;94592.41;;;2.26;79.63
84714;BME280;74938;42.658;23.248;2023-12-29T02:31:34;94590.09;;;2.61;77.97
84714;BME280;74938;42.658;23.248;2023-12-29T02:34:02;94589.03;;;2.54;77.31
84714;BME280;74938;42.658;23.248;2023-12-29T02:36:29;94585.97;;;2.41;77.15
84714;BME280;74938;42.658;23.248;2023-12-29T02:38:55;94581.81;;;2.40;77.94
84714;BME280;74938;42.658;23.248;2023-12-29T02:41:21;94579.25;;;2.40;78.09
84714;BME280;74938;42.658;23.248;2023-12-29T02:43:46;94569.97;;;2.49;77.93
84714;BME280;74938;42.658;23.248;2023-12-29T02:46:12;94582.19;;;2.55;78.22
84714;BME280;74938;42.658;23.248;2023-12-29T02:48:38;94571.69;;;2.77;77.61
84714;BME280;74938;42.658;23.248;2023-12-29T02:51:04;94565.78;;;2.76;77.15
84714;BME280;74938;42.658;23.248;2023-12-29T02:53:29;94559.34;;;2.72;78.07
84714;BME280;74938;42.658;23.248;2023-12-29T02:55:54;94553.75;;;2.59;77.54
84714;BME280;74938;42.658;23.248;2023-12-29T02:58:20;94559.94;;;2.37;78.68
84714;BME280;74938;42.658;23.248;2023-12-29T03:00:45;94563.16;;;2.20;78.83
84714;BME280;74938;42.658;23.248;2023-12-29T03:03:10;94541.41;;;1.97;78.96
84714;BME280;74938;42.658;23.248;2023-12-29T03:05:36;94549.88;;;1.88;79.53
84714;BME280;74938;42.658;23.248;2023-12-29T03:08:01;94550.13;;;1.85;79.37
84714;BME280;74938;42.658;23.248;2023-12-29T03:10:27;94542.25;;;2.07;78.80
84714;BME280;74938;42.658;23.248;2023-12-29T03:12:52;94542.38;;;2.05;79.05
84714;BME280;74938;42.658;23.248;2023-12-29T03:15:18;94533.09;;;2.14;79.25
84714;BME280;74938;42.658;23.248;2023-12-29T03:17:43;94539.13;;;2.42;77.74
84714;BME280;74938;42.658;23.248;2023-12-29T03:20:09;94543.28;;;2.14;78.44
84714;BME280;74938;42.658;23.248;2023-12-29T03:22:34;94545.84;;;1.95;79.10
84714;BME280;74938;42.658;23.248;2023-12-29T03:25:00;94547.44;;;1.67;79.65
84714;BME280;74938;42.658;23.248;2023-12-29T03:27:25;94554.69;;;1.71;80.02
84714;BME280;74938;42.658;23.248;2023-12-29T03:29:50;94559.88;;;1.51;79.99
84714;BME280;74938;42.658;23.248;2023-12-29T03:32:16;94559.06;;;1.60;79.47
84714;BME280;74938;42.658;23.248;2023-12-29T03:34:42;94545.16;;;1.93;78.47
84714;BME280;74938;42.658;23.248;2023-12-29T03:37:08;94548.91;;;1.69;78.40
84714;BME280;74938;42.658;23.248;2023-12-29T03:39:34;94534.97;;;1.83;78.65
84714;BME280;74938;42.658;23.248;2023-12-29T03:42:00;94542.88;;;1.80;78.89
84714;BME280;74938;42.658;23.248;2023-12-29T03:44:26;94551.00;;;1.45;80.24
84714;BME280;74938;42.658;23.248;2023-12-29T03:46:51;94549.63;;;1.31;80.35
84714;BME280;74938;42.658;23.248;2023-12-29T03:49:17;94538.31;;;1.64;79.43
84714;BME280;74938;42.658;23.248;2023-12-29T03:51:42;94533.88;;;1.66;78.63
84714;BME280;74938;42.658;23.248;2023-12-29T03:54:08;94535.59;;;1.47;79.59
84714;BME280;74938;42.658;23.248;2023-12-29T03:56:33;94544.00;;;1.28;80.81
84714;BME280;74938;42.658;23.248;2023-12-29T03:58:58;94550.22;;;1.54;80.44
84714;BME280;74938;42.658;23.248;2023-12-29T04:01:24;94540.44;;;1.50;80.31
84714;BME280;74938;42.658;23.248;2023-12-29T04:03:52;94547.91;;;1.42;80.56
84714;BME280;74938;42.658;23.248;2023-12-29T04:06:18;94540.56;;;1.58;79.77
84714;BME280;74938;42.658;23.248;2023-12-29T04:08:43;94543.28;;;1.75;79.34
84714;BME280;74938;42.658;23.248;2023-12-29T04:11:09;94540.34;;;1.90;78.93
84714;BME280;74938;42.658;23.248;2023-12-29T04:13:35;94552.69;;;1.85;78.54
84714;BME280;74938;42.658;23.248;2023-12-29T04:16:00;94548.91;;;1.79;79.68
84714;BME280;74938;42.658;23.248;2023-12-29T04:18:26;94552.94;;;1.72;79.77
84714;BME280;74938;42.658;23.248;2023-12-29T04:20:51;94548.63;;;1.63;79.02
84714;BME280;74938;42.658;23.248;2023-12-29T04:23:16;94550.75;;;1.58;80.41
84714;BME280;74938;42.658;23.248;2023-12-29T04:25:42;94551.22;;;1.82;79.90
84714;BME280;74938;42.658;23.248;2023-12-29T04:28:08;94548.00;;;1.99;79.47
84714;BME280;74938;42.658;23.248;2023-12-29T04:30:34;94551.06;;;1.84;78.49
84714;BME280;74938;42.658;23.248;2023-12-29T04:32:59;94542.47;;;1.56;79.28
84714;BME280;74938;42.658;23.248;2023-12-29T04:35:25;94543.38;;;1.45;80.75
84714;BME280;74938;42.658;23.248;2023-12-29T04:37:50;94552.75;;;1.45;79.60
84714;BME280;74938;42.658;23.248;2023-12-29T04:40:16;94552.31;;;1.39;80.44
84714;BME280;74938;42.658;23.248;2023-12-29T04:42:42;94544.34;;;1.54;80.62
84714;BME280;74938;42.658;23.248;2023-12-29T04:45:08;94549.19;;;1.76;80.11
84714;BME280;74938;42.658;23.248;2023-12-29T04:47:34;94542.63;;;1.83;79.95
84714;BME280;74938;42.658;23.248;2023-12-29T04:49:59;94543.84;;;1.89;79.55
84714;BME280;74938;42.658;23.248;2023-12-29T04:52:24;94551.59;;;1.78;79.20
84714;BME280;74938;42.658;23.248;2023-12-29T04:54:50;94553.22;;;1.69;79.43
84714;BME280;74938;42.658;23.248;2023-12-29T04:57:15;94547.03;;;1.91;79.27
84714;BME280;74938;42.658;23.248;2023-12-29T04:59:41;94540.06;;;1.93;79.31
84714;BME280;74938;42.658;23.248;2023-12-29T05:02:06;94536.72;;;2.12;79.01
84714;BME280;74938;42.658;23.248;2023-12-29T05:04:32;94530.69;;;2.13;77.55
84714;BME280;74938;42.658;23.248;2023-12-29T05:06:57;94531.50;;;2.23;78.83
84714;BME280;74938;42.658;23.248;2023-12-29T05:09:23;94536.19;;;1.89;79.50
84714;BME280;74938;42.658;23.248;2023-12-29T05:11:49;94531.91;;;1.99;78.82
84714;BME280;74938;42.658;23.248;2023-12-29T05:14:15;94534.44;;;1.99;78.23
84714;BME280;74938;42.658;23.248;2023-12-29T05:16:44;94528.53;;;1.69;79.15
84714;BME280;74938;42.658;23.248;2023-12-29T05:19:09;94519.38;;;1.57;80.06
84714;BME280;74938;42.658;23.248;2023-12-29T05:21:34;94513.38;;;1.68;80.00
84714;BME280;74938;42.658;23.248;2023-12-29T05:24:00;94513.00;;;1.72;79.88
84714;BME280;74938;42.658;23.248;2023-12-29T05:26:25;94519.44;;;1.86;79.69
84714;BME280;74938;42.658;23.248;2023-12-29T05:28:51;94517.81;;;1.85;80.20
84714;BME280;74938;42.658;23.248;2023-12-29T05:31:17;94516.19;;;1.74;80.27
84714;BME280;74938;42.658;23.248;2023-12-29T05:33:44;94531.59;;;1.54;81.00
84714;BME280;74938;42.658;23.248;2023-12-29T05:36:10;94538.16;;;1.47;81.15
84714;BME280;74938;42.658;23.248;2023-12-29T05:38:37;94534.38;;;1.41;80.95
84714;BME280;74938;42.658;23.248;2023-12-29T05:41:03;94538.16;;;1.56;80.21
84714;BME280;74938;42.658;23.248;2023-12-29T05:43:31;94539.16;;;1.25;80.79
84714;BME280;74938;42.658;23.248;2023-12-29T05:46:00;94535.53;;;1.18;80.88
84714;BME280;74938;42.658;23.248;2023-12-29T05:48:26;94539.84;;;1.27;81.42
84714;BME280;74938;42.658;23.248;2023-12-29T05:50:51;94539.44;;;1.31;81.02
84714;BME280;74938;42.658;23.248;2023-12-29T05:53:17;94530.38;;;1.38;80.71
84714;BME280;74938;42.658;23.248;2023-12-29T05:55:45;94538.00;;;1.38;81.58
84714;BME280;74938;42.658;23.248;2023-12-29T05:58:11;94541.94;;;1.22;81.76
84714;BME280;74938;42.658;23.248;2023-12-29T06:00:37;94528.94;;;1.15;80.86
84714;BME280;74938;42.658;23.248;2023-12-29T06:03:02;94535.03;;;0.93;81.38
84714;BME280;74938;42.658;23.248;2023-12-29T06:05:32;94533.41;;;0.92;80.99
84714;BME280;74938;42.658;23.248;2023-12-29T06:07:57;94531.06;;;1.00;81.10
84714;BME280;74938;42.658;23.248;2023-12-29T06:10:22;94527.09;;;1.17;80.64
84714;BME280;74938;42.658;23.248;2023-12-29T06:12:49;94521.19;;;1.26;80.85
84714;BME280;74938;42.658;23.248;2023-12-29T06:15:14;94522.19;;;1.35;80.35
84714;BME280;74938;42.658;23.248;2023-12-29T06:17:40;94514.63;;;1.24;80.58
84714;BME280;74938;42.658;23.248;2023-12-29T06:20:06;94521.75;;;1.30;81.01
84714;BME280;74938;42.658;23.248;2023-12-29T06:22:32;94519.91;;;1.42;80.57
84714;BME280;74938;42.658;23.248;2023-12-29T06:24:58;94520.59;;;1.63;80.87
84714;BME280;74938;42.658;23.248;2023-12-29T06:27:25;94529.19;;;1.52;80.30
84714;BME280;74938;42.658;23.248;2023-12-29T06:29:50;94537.31;;;1.36;80.31
84714;BME280;74938;42.658;23.248;2023-12-29T06:32:15;94529.31;;;1.51;79.25
84714;BME280;74938;42.658;23.248;2023-12-29T06:34:41;94530.56;;;1.16;81.05
84714;BME280;74938;42.658;23.248;2023-12-29T06:37:06;94541.25;;;1.50;81.18
84714;BME280;74938;42.658;23.248;2023-12-29T06:39:32;94538.94;;;1.47;80.23
84714;BME280;74938;42.658;23.248;2023-12-29T06:41:57;94542.00;;;1.31;80.47
84714;BME280;74938;42.658;23.248;2023-12-29T06:44:23;94542.50;;;1.25;80.81
84714;BME280;74938;42.658;23.248;2023-12-29T06:46:48;94548.28;;;1.27;80.57
84714;BME280;74938;42.658;23.248;2023-12-29T06:49:13;94548.19;;;1.38;80.28
84714;BME280;74938;42.658;23.248;2023-12-29T06:51:39;94544.06;;;1.57;79.50
84714;BME280;74938;42.658;23.248;2023-12-29T06:54:06;94536.81;;;1.62;79.25
84714;BME280;74938;42.658;23.248;2023-12-29T06:56:32;94526.50;;;1.63;80.18
84714;BME280;74938;42.658;23.248;2023-12-29T06:58:57;94525.03;;;1.80;79.74
84714;BME280;74938;42.658;23.248;2023-12-29T07:01:23;94534.19;;;1.73;79.69
84714;BME280;74938;42.658;23.248;2023-12-29T07:03:48;94536.28;;;1.49;80.50
84714;BME280;74938;42.658;23.248;2023-12-29T07:06:13;94542.72;;;1.53;81.67
84714;BME280;74938;42.658;23.248;2023-12-29T07:08:39;94540.19;;;1.53;81.10
84714;BME280;74938;42.658;23.248;2023-12-29T07:11:09;94539.50;;;1.60;81.18
84714;BME280;74938;42.658;23.248;2023-12-29T07:13:36;94536.84;;;1.71;80.74
84714;BME280;74938;42.658;23.248;2023-12-29T07:16:01;94543.00;;;1.79;80.20
84714;BME280;74938;42.658;23.248;2023-12-29T07:18:27;94527.19;;;2.14;79.92
84714;BME280;74938;42.658;23.248;2023-12-29T07:20:52;94538.94;;;3.09;76.89
84714;BME280;74938;42.658;23.248;2023-12-29T07:23:17;94538.44;;;4.32;72.52
84714;BME280;74938;42.658;23.248;2023-12-29T07:25:43;94538.44;;;5.43;67.83
84714;BME280;74938;42.658;23.248;2023-12-29T07:28:08;94529.16;;;6.09;64.10
84714;BME280;74938;42.658;23.248;2023-12-29T07:30:33;94521.13;;;6.85;61.17
84714;BME280;74938;42.658;23.248;2023-12-29T07:32:59;94517.28;;;7.44;58.75
84714;BME280;74938;42.658;23.248;2023-12-29T07:35:24;94519.16;;;7.81;56.89
84714;BME280;74938;42.658;23.248;2023-12-29T07:37:50;94521.72;;;8.35;55.37
84714;BME280;74938;42.658;23.248;2023-12-29T07:40:16;94511.81;;;8.84;53.77
84714;BME280;74938;42.658;23.248;2023-12-29T07:42:42;94520.09;;;9.38;52.02
84714;BME280;74938;42.658;23.248;2023-12-29T07:45:09;94526.28;;;9.73;51.39
84714;BME280;74938;42.658;23.248;2023-12-29T07:47:35;94521.81;;;10.18;50.58
84714;BME280;74938;42.658;23.248;2023-12-29T07:50:01;94527.06;;;10.67;47.54
84714;BME280;74938;42.658;23.248;2023-12-29T07:52:27;94529.53;;;11.03;47.18
84714;BME280;74938;42.658;23.248;2023-12-29T07:54:55;94527.06;;;11.23;47.12
84714;BME280;74938;42.658;23.248;2023-12-29T07:57:20;94528.47;;;10.98;47.34
84714;BME280;74938;42.658;23.248;2023-12-29T07:59:46;94543.31;;;10.61;48.92
84714;BME280;74938;42.658;23.248;2023-12-29T08:02:11;94542.09;;;11.06;48.20
84714;BME280;74938;42.658;23.248;2023-12-29T08:04:37;94535.69;;;11.71;45.77
84714;BME280;74938;42.658;23.248;2023-12-29T08:07:03;94524.69;;;12.17;44.36
84714;BME280;74938;42.658;23.248;2023-12-29T08:09:29;94530.53;;;11.37;46.30
84714;BME280;74938;42.658;23.248;2023-12-29T08:11:56;94531.91;;;11.74;45.94
84714;BME280;74938;42.658;23.248;2023-12-29T08:14:21;94532.53;;;12.50;44.76
84714;BME280;74938;42.658;23.248;2023-12-29T08:16:47;94536.94;;;12.89;43.22
84714;BME280;74938;42.658;23.248;2023-12-29T08:19:12;94537.88;;;13.54;41.61
84714;BME280;74938;42.658;23.248;2023-12-29T08:21:38;94542.16;;;13.93;41.08
84714;BME280;74938;42.658;23.248;2023-12-29T08:24:03;94537.38;;;14.28;39.80
84714;BME280;74938;42.658;23.248;2023-12-29T08:26:29;94538.06;;;14.17;40.23
84714;BME280;74938;42.658;23.248;2023-12-29T08:28:54;94524.38;;;13.19;42.46
84714;BME280;74938;42.658;23.248;2023-12-29T08:31:20;94529.97;;;12.70;43.13
84714;BME280;74938;42.658;23.248;2023-12-29T08:33:47;94537.19;;;12.00;44.04
84714;BME280;74938;42.658;23.248;2023-12-29T08:36:13;94539.00;;;10.68;47.72
84714;BME280;74938;42.658;23.248;2023-12-29T08:38:38;94547.03;;;10.16;49.05
84714;BME280;74938;42.658;23.248;2023-12-29T08:41:04;94548.78;;;9.94;50.94
84714;BME280;74938;42.658;23.248;2023-12-29T08:43:29;94553.91;;;9.58;52.43
84714;BME280;74938;42.658;23.248;2023-12-29T08:45:55;94555.41;;;9.08;53.24
84714;BME280;74938;42.658;23.248;2023-12-29T08:48:21;94555.38;;;8.94;53.23
84714;BME280;74938;42.658;23.248;2023-12-29T08:50:47;94547.97;;;8.76;53.59
84714;BME280;74938;42.658;23.248;2023-12-29T08:53:12;94550.34;;;8.40;54.73
84714;BME280;74938;42.658;23.248;2023-12-29T08:55:38;94541.53;;;8.12;56.30
84714;BME280;74938;42.658;23.248;2023-12-29T08:58:03;94548.78;;;7.77;57.20
84714;BME280;74938;42.658;23.248;2023-12-29T09:00:29;94558.44;;;7.75;57.74
84714;BME280;74938;42.658;23.248;2023-12-29T09:02:56;94556.19;;;7.72;58.13
84714;BME280;74938;42.658;23.248;2023-12-29T09:05:22;94549.66;;;7.61;58.27
84714;BME280;74938;42.658;23.248;2023-12-29T09:07:47;94560.28;;;7.58;58.69
84714;BME280;74938;42.658;23.248;2023-12-29T09:10:12;94561.53;;;7.62;57.94
84714;BME280;74938;42.658;23.248;2023-12-29T09:12:38;94558.13;;;7.70;58.21
84714;BME280;74938;42.658;23.248;2023-12-29T09:15:05;94559.66;;;7.87;57.57
84714;BME280;74938;42.658;23.248;2023-12-29T09:17:31;94552.66;;;8.04;57.68
84714;BME280;74938;42.658;23.248;2023-12-29T09:19:56;94547.25;;;7.91;57.60
84714;BME280;74938;42.658;23.248;2023-12-29T09:22:21;94548.97;;;7.98;57.29
84714;BME280;74938;42.658;23.248;2023-12-29T09:24:47;94540.00;;;8.17;57.12
84714;BME280;74938;42.658;23.248;2023-12-29T09:27:12;94534.03;;;8.25;56.72
84714;BME280;74938;42.658;23.248;2023-12-29T09:29:38;94534.09;;;8.40;56.62
84714;BME280;74938;42.658;23.248;2023-12-29T09:32:04;94522.50;;;8.44;55.63
84714;BME280;74938;42.658;23.248;2023-12-29T09:34:30;94525.31;;;8.49;55.77
84714;BME280;74938;42.658;23.248;2023-12-29T09:36:55;94515.22;;;8.47;55.60
84714;BME280;74938;42.658;23.248;2023-12-29T09:39:20;94520.53;;;8.46;56.34
84714;BME280;74938;42.658;23.248;2023-12-29T09:41:46;94510.81;;;8.70;56.04
84714;BME280;74938;42.658;23.248;2023-12-29T09:44:16;94506.13;;;8.89;54.92
84714;BME280;74938;42.658;23.248;2023-12-29T09:46:42;94509.13;;;8.63;56.41
84714;BME280;74938;42.658;23.248;2023-12-29T09:49:09;94506.59;;;8.92;55.56
84714;BME280;74938;42.658;23.248;2023-12-29T09:51:36;94502.41;;;8.91;54.82
84714;BME280;74938;42.658;23.248;2023-12-29T09:54:02;94508.47;;;8.98;54.96
84714;BME280;74938;42.658;23.248;2023-12-29T09:56:28;94511.94;;;9.20;54.13
84714;BME280;74938;42.658;23.248;2023-12-29T09:58:54;94506.34;;;9.17;54.37
84714;BME280;74938;42.658;23.248;2023-12-29T10:01:21;94502.41;;;9.21;54.22
84714;BME280;74938;42.658;23.248;2023-12-29T10:03:48;94504.00;;;9.22;55.55
84714;BME280;74938;42.658;23.248;2023-12-29T10:06:18;94506.78;;;9.05;56.59
84714;BME280;74938;42.658;23.248;2023-12-29T10:08:45;94500.28;;;9.10;55.49
84714;BME280;74938;42.658;23.248;2023-12-29T10:11:14;94488.53;;;9.22;55.33
84714;BME280;74938;42.658;23.248;2023-12-29T10:13:42;94492.28;;;9.19;55.11
84714;BME280;74938;42.658;23.248;2023-12-29T10:16:42;94492.91;;;8.92;56.39
84714;BME280;74938;42.658;23.248;2023-12-29T10:19:39;94484.88;;;9.46;55.96
84714;BME280;74938;42.658;23.248;2023-12-29T10:24:43;94476.91;;;8.96;56.18
84714;BME280;74938;42.658;23.248;2023-12-29T10:27:12;94471.56;;;8.98;56.44
84714;BME280;74938;42.658;23.248;2023-12-29T10:29:38;94465.63;;;8.97;57.50
84714;BME280;74938;42.658;23.248;2023-12-29T10:32:04;94456.63;;;8.93;58.17
84714;BME280;74938;42.658;23.248;2023-12-29T10:34:29;94450.50;;;8.94;57.44
84714;BME280;74938;42.658;23.248;2023-12-29T10:36:56;94448.28;;;9.06;56.79
84714;BME280;74938;42.658;23.248;2023-12-29T10:39:22;94441.50;;;9.05;57.70
84714;BME280;74938;42.658;23.248;2023-12-29T10:41:48;94442.84;;;9.01;56.99
84714;BME280;74938;42.658;23.248;2023-12-29T10:44:15;94432.63;;;9.07;57.08
84714;BME280;74938;42.658;23.248;2023-12-29T10:46:41;94429.34;;;9.14;56.67
84714;BME280;74938;42.658;23.248;2023-12-29T10:49:13;94433.41;;;9.23;56.38
84714;BME280;74938;42.658;23.248;2023-12-29T10:51:39;94424.44;;;9.33;58.04
84714;BME280;74938;42.658;23.248;2023-12-29T10:54:05;94410.41;;;9.78;55.54
84714;BME280;74938;42.658;23.248;2023-12-29T10:56:34;94407.69;;;9.65;56.90
84714;BME280;74938;42.658;23.248;2023-12-29T10:59:04;94400.94;;;9.64;55.99
84714;BME280;74938;42.658;23.248;2023-12-29T11:01:36;94398.16;;;9.66;56.41
84714;BME280;74938;42.658;23.248;2023-12-29T11:04:06;94391.59;;;9.63;55.78
84714;BME280;74938;42.658;23.248;2023-12-29T11:06:44;94391.84;;;9.68;57.15
84714;BME280;74938;42.658;23.248;2023-12-29T11:09:12;94392.06;;;9.73;55.15
84714;BME280;74938;42.658;23.248;2023-12-29T11:11:38;94383.97;;;9.76;56.80
84714;BME280;74938;42.658;23.248;2023-12-29T11:14:04;94383.84;;;9.85;56.16
84714;BME280;74938;42.658;23.248;2023-12-29T11:16:30;94387.25;;;9.85;56.18
84714;BME280;74938;42.658;23.248;2023-12-29T11:18:58;94383.72;;;9.93;55.43
84714;BME280;74938;42.658;23.248;2023-12-29T11:21:26;94382.00;;;10.00;54.35
84714;BME280;74938;42.658;23.248;2023-12-29T11:23:52;94375.25;;;9.99;54.38
84714;BME280;74938;42.658;23.248;2023-12-29T11:26:18;94388.16;;;9.99;54.71
84714;BME280;74938;42.658;23.248;2023-12-29T11:28:46;94379.84;;;10.03;55.93
84714;BME280;74938;42.658;23.248;2023-12-29T11:31:17;94377.63;;;10.00;54.20
84714;BME280;74938;42.658;23.248;2023-12-29T11:33:50;94376.25;;;10.04;55.60
84714;BME280;74938;42.658;23.248;2023-12-29T11:36:20;94387.25;;;10.34;54.24
84714;BME280;74938;42.658;23.248;2023-12-29T11:44:26;94366.31;;;10.57;53.79
84714;BME280;74938;42.658;23.248;2023-12-29T11:46:52;94365.75;;;10.62;54.05
84714;BME280;74938;42.658;23.248;2023-12-29T11:49:19;94370.56;;;10.65;53.74
84714;BME280;74938;42.658;23.248;2023-12-29T11:51:47;94360.41;;;10.63;53.74
84714;BME280;74938;42.658;23.248;2023-12-29T11:54:25;94361.34;;;10.90;52.21
84714;BME280;74938;42.658;23.248;2023-12-29T11:56:52;94359.25;;;11.13;53.17
84714;BME280;74938;42.658;23.248;2023-12-29T11:59:19;94360.09;;;11.27;53.81
84714;BME280;74938;42.658;23.248;2023-12-29T12:01:49;94361.50;;;11.30;52.39
84714;BME280;74938;42.658;23.248;2023-12-29T12:04:40;94355.41;;;10.96;52.76
84714;BME280;74938;42.658;23.248;2023-12-29T12:10:10;94350.28;;;11.09;51.29
84714;BME280;74938;42.658;23.248;2023-12-29T12:12:42;94351.34;;;11.35;51.74
84714;BME280;74938;42.658;23.248;2023-12-29T12:17:52;94354.22;;;11.60;50.30
84714;BME280;74938;42.658;23.248;2023-12-29T12:20:17;94350.22;;;11.64;51.39
84714;BME280;74938;42.658;23.248;2023-12-29T12:22:43;94353.19;;;11.41;50.28
84714;BME280;74938;42.658;23.248;2023-12-29T12:25:11;94349.81;;;11.54;49.52
84714;BME280;74938;42.658;23.248;2023-12-29T12:27:38;94361.19;;;11.66;50.45
84714;BME280;74938;42.658;23.248;2023-12-29T12:30:04;94365.72;;;11.50;51.09
84714;BME280;74938;42.658;23.248;2023-12-29T12:32:30;94361.53;;;11.43;49.67
84714;BME280;74938;42.658;23.248;2023-12-29T12:34:56;94359.19;;;11.61;49.21
84714;BME280;74938;42.658;23.248;2023-12-29T12:37:28;94354.59;;;11.50;49.35
84714;BME280;74938;42.658;23.248;2023-12-29T12:39:55;94358.75;;;11.38;49.63
84714;BME280;74938;42.658;23.248;2023-12-29T12:42:22;94360.53;;;11.44;47.94
84714;BME280;74938;42.658;23.248;2023-12-29T12:44:53;94352.78;;;11.50;48.71
84714;BME280;74938;42.658;23.248;2023-12-29T12:47:26;94353.19;;;11.47;48.37
84714;BME280;74938;42.658;23.248;2023-12-29T12:49:52;94358.53;;;11.46;47.58
84714;BME280;74938;42.658;23.248;2023-12-29T12:52:18;94363.94;;;11.51;48.57
84714;BME280;74938;42.658;23.248;2023-12-29T12:54:43;94369.09;;;11.44;48.73
84714;BME280;74938;42.658;23.248;2023-12-29T12:57:09;94361.13;;;11.46;48.60
84714;BME280;74938;42.658;23.248;2023-12-29T12:59:35;94359.59;;;11.65;48.07
84714;BME280;74938;42.658;23.248;2023-12-29T13:02:02;94353.00;;;11.56;49.73
84714;BME280;74938;42.658;23.248;2023-12-29T13:04:28;94358.53;;;11.46;50.24
84714;BME280;74938;42.658;23.248;2023-12-29T13:06:53;94354.44;;;11.71;49.15
84714;BME280;74938;42.658;23.248;2023-12-29T13:09:19;94356.38;;;11.63;49.96
84714;BME280;74938;42.658;23.248;2023-12-29T13:11:45;94355.63;;;11.75;49.33